createdAt,value
2018-03-23T00:00:10.653Z,49.40
2018-03-23T00:01:15.600Z,49.60
2018-03-23T00:02:20.782Z,49.50
2018-03-23T00:03:25.854Z,49.50
2018-03-23T00:04:30.907Z,49.50
2018-03-23T00:05:35.891Z,49.50
2018-03-23T00:06:41.055Z,49.50
2018-03-23T00:07:46.215Z,49.50
2018-03-23T00:08:51.508Z,49.60
2018-03-23T00:09:56.719Z,49.60
2018-03-23T00:11:01.695Z,49.70
2018-03-23T00:12:06.942Z,49.70
2018-03-23T00:13:11.963Z,49.60
2018-03-23T00:14:17.083Z,49.80
2018-03-23T00:15:22.019Z,49.80
2018-03-23T00:16:26.898Z,49.80
2018-03-23T00:17:31.899Z,49.90
2018-03-23T00:18:37.007Z,49.90
2018-03-23T00:19:42.184Z,49.80
2018-03-23T00:20:47.239Z,49.80
2018-03-23T00:21:52.340Z,49.80
2018-03-23T00:22:57.336Z,49.80
2018-03-23T00:24:02.529Z,49.90
2018-03-23T00:25:07.629Z,49.90
2018-03-23T00:26:12.554Z,50.00
2018-03-23T00:27:17.521Z,50.00
2018-03-23T00:28:22.616Z,50.00
2018-03-23T00:29:27.695Z,50.10
2018-03-23T00:30:32.819Z,50.20
2018-03-23T00:31:38.017Z,50.20
2018-03-23T00:32:43.067Z,50.30
2018-03-23T00:33:48.000Z,50.20
2018-03-23T00:34:53.202Z,50.20
2018-03-23T00:35:58.434Z,50.30
2018-03-23T00:37:03.616Z,50.20
2018-03-23T00:38:08.625Z,50.30
2018-03-23T00:39:13.766Z,50.20
2018-03-23T00:40:18.845Z,50.30
2018-03-23T00:41:23.879Z,50.30
2018-03-23T00:42:29.030Z,50.30
2018-03-23T00:43:34.300Z,50.30
2018-03-23T00:44:39.337Z,50.30
2018-03-23T00:45:44.567Z,50.20
2018-03-23T00:46:49.753Z,50.30
2018-03-23T00:47:54.786Z,50.30
2018-03-23T00:48:59.953Z,50.30
2018-03-23T00:50:05.008Z,50.30
2018-03-23T00:51:09.915Z,50.30
2018-03-23T00:52:15.002Z,50.30
2018-03-23T00:53:20.046Z,50.40
2018-03-23T00:54:25.051Z,50.40
2018-03-23T00:55:30.135Z,50.40
2018-03-23T00:56:35.144Z,50.40
2018-03-23T00:57:40.288Z,50.40
2018-03-23T00:58:45.322Z,50.40
2018-03-23T00:59:50.453Z,50.40
2018-03-23T01:00:55.532Z,50.30
2018-03-23T01:02:00.703Z,50.50
2018-03-23T01:03:05.901Z,50.50
2018-03-23T01:04:10.827Z,50.50
2018-03-23T01:05:15.985Z,50.50
2018-03-23T01:06:20.892Z,50.50
2018-03-23T01:07:26.061Z,50.50
2018-03-23T01:08:31.000Z,50.40
2018-03-23T01:09:36.183Z,50.50
2018-03-23T01:10:41.116Z,50.50
2018-03-23T01:11:46.150Z,50.50
2018-03-23T01:12:51.029Z,50.50
2018-03-23T01:13:56.098Z,50.50
2018-03-23T01:15:01.202Z,51.20
2018-03-23T01:16:06.109Z,50.50
2018-03-23T01:17:11.278Z,50.60
2018-03-23T01:18:16.204Z,50.60
2018-03-23T01:19:21.287Z,50.60
2018-03-23T01:20:26.375Z,50.60
2018-03-23T01:21:31.530Z,50.60
2018-03-23T01:22:36.481Z,50.60
2018-03-23T01:23:41.442Z,50.60
2018-03-23T01:24:46.704Z,50.60
2018-03-23T01:25:51.680Z,50.60
2018-03-23T01:26:56.872Z,50.70
2018-03-23T01:28:02.101Z,50.60
2018-03-23T01:29:07.066Z,50.70
2018-03-23T01:30:12.165Z,50.70
2018-03-23T01:31:17.288Z,50.70
2018-03-23T01:32:22.441Z,50.70
2018-03-23T01:33:27.651Z,50.70
2018-03-23T01:34:32.646Z,50.70
2018-03-23T01:35:37.639Z,50.80
2018-03-23T01:36:42.765Z,50.80
2018-03-23T01:37:47.906Z,50.80
2018-03-23T01:38:53.139Z,50.80
2018-03-23T01:39:58.324Z,50.90
2018-03-23T01:41:03.388Z,50.90
2018-03-23T01:42:08.419Z,50.90
2018-03-23T01:43:13.362Z,50.90
2018-03-23T01:44:18.312Z,50.90
2018-03-23T01:45:23.351Z,51.00
2018-03-23T01:46:28.409Z,50.90
2018-03-23T01:47:33.407Z,50.90
2018-03-23T01:48:38.339Z,50.90
2018-03-23T01:49:43.317Z,50.90
2018-03-23T01:50:48.318Z,51.00
2018-03-23T01:51:53.587Z,51.00
2018-03-23T01:52:58.626Z,51.00
2018-03-23T01:54:03.535Z,50.90
2018-03-23T01:55:08.428Z,51.00
2018-03-23T01:56:13.371Z,50.90
2018-03-23T01:57:18.391Z,51.10
2018-03-23T01:58:23.444Z,51.10
2018-03-23T01:59:28.570Z,51.00
2018-03-23T02:00:33.425Z,50.90
2018-03-23T02:01:38.467Z,50.90
2018-03-23T02:02:43.548Z,50.80
2018-03-23T02:03:48.667Z,50.90
2018-03-23T02:04:53.724Z,50.70
2018-03-23T02:05:58.842Z,50.70
2018-03-23T02:07:03.937Z,51.40
2018-03-23T02:08:08.978Z,50.70
2018-03-23T02:09:13.952Z,50.70
2018-03-23T02:10:18.905Z,50.70
2018-03-23T02:11:23.809Z,50.70
2018-03-23T02:12:28.848Z,51.30
2018-03-23T02:13:33.913Z,50.70
2018-03-23T02:14:39.015Z,50.70
2018-03-23T02:15:43.915Z,50.80
2018-03-23T02:16:48.805Z,50.70
2018-03-23T02:17:53.855Z,50.70
2018-03-23T02:18:58.912Z,50.70
2018-03-23T02:20:04.050Z,50.70
2018-03-23T02:21:09.090Z,50.70
2018-03-23T02:22:16.613Z,50.70
2018-03-23T02:23:21.713Z,50.70
2018-03-23T02:24:26.542Z,50.70
2018-03-23T02:25:31.742Z,50.60
2018-03-23T02:26:36.844Z,50.60
2018-03-23T02:27:41.767Z,50.70
2018-03-23T02:28:46.628Z,50.70
2018-03-23T02:29:51.764Z,50.70
2018-03-23T02:30:56.782Z,50.70
2018-03-23T02:32:01.898Z,50.70
2018-03-23T02:33:06.980Z,50.70
2018-03-23T02:34:12.150Z,50.70
2018-03-23T02:35:17.173Z,50.70
2018-03-23T02:36:22.374Z,50.80
2018-03-23T02:37:27.540Z,50.70
2018-03-23T02:38:32.628Z,50.70
2018-03-23T02:39:37.539Z,50.70
2018-03-23T02:40:42.625Z,50.70
2018-03-23T02:41:47.753Z,50.70
2018-03-23T02:42:52.757Z,50.70
2018-03-23T02:43:57.782Z,50.80
2018-03-23T02:45:02.788Z,50.80
2018-03-23T02:46:07.821Z,50.80
2018-03-23T02:47:12.794Z,50.80
2018-03-23T02:48:17.863Z,50.80
2018-03-23T02:49:22.871Z,50.80
2018-03-23T02:50:27.680Z,50.80
2018-03-23T02:51:32.678Z,50.90
2018-03-23T02:52:37.761Z,50.90
2018-03-23T02:53:42.681Z,51.00
2018-03-23T02:54:47.624Z,50.90
2018-03-23T02:55:52.745Z,50.90
2018-03-23T02:56:57.684Z,50.90
2018-03-23T02:58:02.830Z,50.90
2018-03-23T02:59:07.993Z,50.90
2018-03-23T03:00:12.852Z,51.10
2018-03-23T03:01:17.809Z,51.10
2018-03-23T03:02:22.879Z,51.20
2018-03-23T03:03:27.752Z,51.10
2018-03-23T03:04:32.777Z,51.10
2018-03-23T03:05:37.805Z,51.10
2018-03-23T03:06:42.806Z,51.10
2018-03-23T03:07:47.839Z,51.10
2018-03-23T03:08:52.685Z,51.20
2018-03-23T03:09:57.758Z,51.10
2018-03-23T03:11:02.866Z,51.00
2018-03-23T03:12:07.732Z,51.10
2018-03-23T03:13:12.593Z,51.00
2018-03-23T03:14:17.565Z,50.90
2018-03-23T03:15:22.501Z,50.90
2018-03-23T03:16:27.523Z,50.90
2018-03-23T03:17:32.503Z,51.10
2018-03-23T03:18:37.584Z,51.00
2018-03-23T03:19:42.629Z,51.00
2018-03-23T03:20:47.500Z,51.00
2018-03-23T03:21:52.515Z,51.00
2018-03-23T03:22:57.534Z,51.10
2018-03-23T03:24:02.770Z,51.10
2018-03-23T03:25:07.631Z,51.10
2018-03-23T03:26:12.772Z,51.10
2018-03-23T03:27:17.746Z,51.10
2018-03-23T03:28:25.509Z,51.00
2018-03-23T03:29:30.477Z,51.00
2018-03-23T03:30:35.459Z,51.10
2018-03-23T03:31:40.508Z,51.10
2018-03-23T03:32:45.583Z,51.20
2018-03-23T03:33:50.645Z,51.10
2018-03-23T03:34:55.599Z,51.20
2018-03-23T03:36:00.707Z,51.20
2018-03-23T03:37:05.732Z,51.30
2018-03-23T03:38:10.536Z,51.40
2018-03-23T03:39:15.649Z,51.30
2018-03-23T03:40:20.804Z,51.30
2018-03-23T03:41:25.857Z,51.20
2018-03-23T03:42:31.015Z,51.30
2018-03-23T03:43:36.172Z,51.30
2018-03-23T03:44:41.260Z,51.30
2018-03-23T03:45:46.349Z,51.30
2018-03-23T03:46:51.430Z,51.30
2018-03-23T03:47:56.606Z,51.40
2018-03-23T03:49:01.595Z,51.30
2018-03-23T03:50:06.717Z,51.30
2018-03-23T03:51:11.689Z,51.30
2018-03-23T03:52:16.791Z,51.30
2018-03-23T03:53:21.898Z,51.30
2018-03-23T03:54:27.133Z,51.30
2018-03-23T03:55:32.184Z,51.40
2018-03-23T03:56:37.278Z,51.30
2018-03-23T03:57:42.258Z,51.30
2018-03-23T03:58:47.217Z,51.30
2018-03-23T03:59:52.146Z,51.20
2018-03-23T04:00:57.132Z,51.20
2018-03-23T04:02:02.346Z,51.80
2018-03-23T04:03:07.292Z,51.20
2018-03-23T04:04:12.346Z,51.20
2018-03-23T04:05:17.276Z,51.20
2018-03-23T04:06:22.278Z,51.20
2018-03-23T04:07:27.191Z,51.20
2018-03-23T04:08:32.158Z,51.20
2018-03-23T04:09:37.364Z,51.30
2018-03-23T04:10:42.425Z,51.30
2018-03-23T04:11:47.377Z,51.20
2018-03-23T04:12:52.365Z,51.20
2018-03-23T04:13:57.452Z,51.20
2018-03-23T04:15:02.595Z,51.30
2018-03-23T04:16:07.498Z,51.20
2018-03-23T04:17:12.440Z,51.30
2018-03-23T04:18:17.345Z,51.30
2018-03-23T04:19:22.237Z,51.30
2018-03-23T04:20:27.104Z,51.30
2018-03-23T04:21:32.261Z,51.30
2018-03-23T04:22:37.109Z,51.30
2018-03-23T04:23:42.162Z,51.50
2018-03-23T04:24:47.082Z,51.30
2018-03-23T04:25:51.872Z,51.20
2018-03-23T04:26:56.690Z,51.30
2018-03-23T04:28:01.541Z,51.30
2018-03-23T04:29:06.611Z,51.30
2018-03-23T04:30:11.573Z,51.30
2018-03-23T04:31:16.649Z,51.30
2018-03-23T04:32:21.712Z,51.30
2018-03-23T04:33:26.508Z,51.40
2018-03-23T04:34:31.606Z,51.40
2018-03-23T04:35:36.451Z,51.40
2018-03-23T04:36:41.546Z,51.30
2018-03-23T04:37:46.507Z,51.30
2018-03-23T04:38:51.710Z,51.30
2018-03-23T04:39:56.726Z,51.40
2018-03-23T04:41:01.911Z,51.30
2018-03-23T04:42:07.022Z,51.30
2018-03-23T04:43:11.918Z,51.40
2018-03-23T04:44:16.950Z,51.40
2018-03-23T04:45:22.087Z,51.40
2018-03-23T04:46:27.255Z,51.40
2018-03-23T04:47:32.239Z,51.30
2018-03-23T04:48:37.309Z,52.00
2018-03-23T04:49:42.341Z,51.30
2018-03-23T04:50:47.458Z,51.30
2018-03-23T04:51:52.348Z,51.40
2018-03-23T04:52:57.257Z,51.50
2018-03-23T04:54:02.339Z,51.40
2018-03-23T04:55:07.347Z,51.40
2018-03-23T04:56:12.226Z,51.30
2018-03-23T04:57:17.224Z,51.30
2018-03-23T04:58:22.237Z,51.30
2018-03-23T04:59:27.325Z,52.00
2018-03-23T05:00:32.180Z,51.40
2018-03-23T05:01:37.290Z,51.30
2018-03-23T05:02:42.191Z,51.30
2018-03-23T05:03:47.121Z,51.30
2018-03-23T05:04:52.044Z,51.30
2018-03-23T05:05:57.168Z,51.30
2018-03-23T05:07:02.269Z,51.20
2018-03-23T05:08:07.369Z,51.30
2018-03-23T05:09:12.273Z,51.30
2018-03-23T05:10:17.270Z,51.30
2018-03-23T05:11:22.189Z,51.20
2018-03-23T05:12:27.123Z,51.20
2018-03-23T05:13:31.960Z,51.20
2018-03-23T05:14:36.877Z,51.20
2018-03-23T05:15:41.787Z,51.30
2018-03-23T05:16:46.725Z,51.30
2018-03-23T05:17:51.641Z,51.20
2018-03-23T05:18:56.772Z,51.30
2018-03-23T05:20:01.828Z,51.30
2018-03-23T05:21:06.945Z,51.30
2018-03-23T05:22:11.841Z,51.20
2018-03-23T05:23:16.754Z,51.20
2018-03-23T05:24:21.809Z,51.20
2018-03-23T05:25:26.729Z,51.30
2018-03-23T05:26:31.830Z,51.30
2018-03-23T05:27:36.841Z,51.20
2018-03-23T05:28:41.972Z,51.10
2018-03-23T05:29:47.004Z,51.20
2018-03-23T05:30:52.051Z,51.20
2018-03-23T05:31:57.040Z,51.10
2018-03-23T05:33:02.221Z,51.20
2018-03-23T05:34:07.130Z,51.30
2018-03-23T05:35:11.997Z,51.20
2018-03-23T05:36:16.948Z,51.20
2018-03-23T05:37:21.943Z,51.30
2018-03-23T05:38:27.120Z,51.20
2018-03-23T05:39:32.300Z,51.30
2018-03-23T05:40:37.422Z,51.20
2018-03-23T05:41:42.509Z,51.20
2018-03-23T05:42:47.661Z,51.20
2018-03-23T05:43:52.678Z,51.20
2018-03-23T05:44:57.847Z,51.20
2018-03-23T05:46:02.904Z,51.30
2018-03-23T05:47:08.105Z,51.30
2018-03-23T05:48:13.242Z,51.30
2018-03-23T05:49:18.202Z,51.20
2018-03-23T05:50:23.425Z,51.30
2018-03-23T05:51:28.348Z,51.30
2018-03-23T05:52:33.429Z,51.30
2018-03-23T05:53:38.470Z,51.30
2018-03-23T05:54:43.433Z,51.20
2018-03-23T05:55:48.377Z,51.50
2018-03-23T05:56:53.406Z,51.60
2018-03-23T05:57:58.494Z,51.70
2018-03-23T05:59:03.528Z,51.60
2018-03-23T06:00:08.528Z,51.70
2018-03-23T06:01:13.805Z,51.90
2018-03-23T06:02:18.832Z,51.90
2018-03-23T06:03:23.861Z,51.80
2018-03-23T06:04:28.686Z,51.90
2018-03-23T06:05:33.534Z,51.90
2018-03-23T06:06:38.524Z,51.90
2018-03-23T06:07:43.423Z,51.90
2018-03-23T06:08:48.286Z,51.80
2018-03-23T06:09:53.187Z,51.80
2018-03-23T06:10:58.236Z,51.80
2018-03-23T06:12:03.364Z,51.80
2018-03-23T06:13:08.197Z,51.80
2018-03-23T06:14:13.409Z,51.50
2018-03-23T06:15:18.583Z,51.50
2018-03-23T06:16:23.742Z,51.50
2018-03-23T06:17:28.836Z,51.40
2018-03-23T06:18:34.051Z,51.20
2018-03-23T06:19:39.267Z,51.10
2018-03-23T06:20:44.458Z,51.00
2018-03-23T06:21:49.725Z,50.90
2018-03-23T06:22:55.267Z,50.80
2018-03-23T06:24:00.405Z,50.60
2018-03-23T06:25:05.549Z,50.50
2018-03-23T06:26:10.489Z,50.50
2018-03-23T06:27:15.633Z,50.40
2018-03-23T06:28:20.722Z,50.30
2018-03-23T06:29:25.847Z,50.20
2018-03-23T06:30:33.647Z,50.10
2018-03-23T06:31:38.923Z,50.20
2018-03-23T06:32:44.025Z,50.10
2018-03-23T06:33:49.072Z,50.10
2018-03-23T06:34:54.323Z,50.10
2018-03-23T06:35:59.279Z,50.00
2018-03-23T06:37:04.441Z,50.00
2018-03-23T06:38:09.608Z,50.00
2018-03-23T06:39:14.781Z,50.10
2018-03-23T06:40:19.831Z,50.10
2018-03-23T06:41:24.806Z,50.30
2018-03-23T06:42:29.910Z,50.30
2018-03-23T06:43:34.923Z,50.50
2018-03-23T06:44:40.826Z,50.40
2018-03-23T06:45:45.979Z,50.40
2018-03-23T06:46:51.123Z,51.50
2018-03-23T06:47:56.315Z,51.10
2018-03-23T06:49:01.462Z,51.10
2018-03-23T06:50:06.502Z,51.10
2018-03-23T06:51:11.516Z,51.10
2018-03-23T06:52:16.605Z,51.10
2018-03-23T06:53:21.606Z,51.10
2018-03-23T06:54:28.184Z,51.00
2018-03-23T06:55:33.296Z,51.00
2018-03-23T06:56:39.248Z,50.70
2018-03-23T06:57:44.253Z,50.10
2018-03-23T06:58:49.322Z,48.40
2018-03-23T06:59:54.329Z,47.30
2018-03-23T07:00:59.355Z,46.60
2018-03-23T07:02:04.363Z,46.00
2018-03-23T07:03:09.491Z,45.80
2018-03-23T07:04:14.530Z,45.70
2018-03-23T07:05:19.907Z,45.60
2018-03-23T07:06:24.887Z,45.70
2018-03-23T07:07:30.007Z,45.90
2018-03-23T07:08:35.107Z,46.00
2018-03-23T07:09:40.021Z,46.00
2018-03-23T07:10:44.812Z,46.10
2018-03-23T07:11:49.800Z,46.30
2018-03-23T07:12:54.671Z,46.40
2018-03-23T07:13:59.519Z,46.40
2018-03-23T07:15:04.611Z,46.50
2018-03-23T07:16:09.466Z,46.70
2018-03-23T07:17:14.720Z,46.70
2018-03-23T07:18:19.485Z,46.80
2018-03-23T07:19:24.376Z,46.80
2018-03-23T07:20:29.389Z,46.90
2018-03-23T07:21:34.380Z,47.10
2018-03-23T07:22:39.425Z,47.10
2018-03-23T07:23:44.327Z,47.10
2018-03-23T07:24:49.446Z,47.10
2018-03-23T07:25:54.318Z,47.10
2018-03-23T07:26:59.607Z,47.20
2018-03-23T07:28:04.755Z,47.30
2018-03-23T07:29:09.880Z,47.40
2018-03-23T07:30:14.713Z,47.40
2018-03-23T07:31:19.877Z,47.50
2018-03-23T07:32:24.801Z,47.50
2018-03-23T07:33:29.758Z,47.60
2018-03-23T07:34:34.851Z,47.70
2018-03-23T07:35:40.358Z,47.80
2018-03-23T07:36:45.527Z,47.80
2018-03-23T07:37:50.642Z,47.90
2018-03-23T07:38:55.812Z,47.90
2018-03-23T07:40:00.775Z,47.90
2018-03-23T07:41:06.055Z,47.90
2018-03-23T07:42:10.989Z,48.00
2018-03-23T07:43:16.074Z,48.00
2018-03-23T07:44:21.156Z,48.00
2018-03-23T07:45:26.060Z,48.00
2018-03-23T07:46:31.211Z,48.00
2018-03-23T07:47:36.230Z,48.10
2018-03-23T07:48:41.206Z,48.10
2018-03-23T07:49:46.191Z,48.20
2018-03-23T07:50:51.173Z,48.20
2018-03-23T07:51:56.154Z,48.30
2018-03-23T07:53:01.373Z,48.30
2018-03-23T07:54:06.455Z,48.30
2018-03-23T07:55:11.477Z,48.40
2018-03-23T07:56:16.876Z,48.50
2018-03-23T07:57:21.988Z,48.50
2018-03-23T07:58:26.910Z,48.50
2018-03-23T07:59:31.985Z,48.40
2018-03-23T08:00:37.029Z,48.50
2018-03-23T08:01:42.708Z,48.50
2018-03-23T08:02:47.778Z,48.50
2018-03-23T08:03:52.757Z,48.60
2018-03-23T08:04:57.821Z,48.60
2018-03-23T08:06:03.034Z,48.60
2018-03-23T08:07:08.012Z,48.60
2018-03-23T08:08:13.034Z,48.60
2018-03-23T08:09:18.257Z,48.60
2018-03-23T08:10:23.123Z,48.60
2018-03-23T08:11:28.322Z,48.60
2018-03-23T08:12:33.300Z,48.60
2018-03-23T08:13:38.460Z,48.60
2018-03-23T08:14:43.309Z,48.60
2018-03-23T08:15:48.425Z,48.60
2018-03-23T08:16:53.357Z,48.60
2018-03-23T08:17:58.204Z,48.60
2018-03-23T08:19:03.317Z,48.60
2018-03-23T08:20:08.226Z,48.60
2018-03-23T08:21:13.101Z,48.60
2018-03-23T08:22:18.039Z,48.60
2018-03-23T08:23:22.870Z,48.70
2018-03-23T08:24:27.888Z,48.70
2018-03-23T08:25:32.939Z,48.70
2018-03-23T08:26:37.744Z,48.70
2018-03-23T08:27:42.739Z,48.80
2018-03-23T08:28:47.515Z,48.80
2018-03-23T08:29:52.504Z,48.80
2018-03-23T08:30:57.649Z,48.70
2018-03-23T08:32:02.545Z,48.80
2018-03-23T08:33:07.708Z,48.80
2018-03-23T08:34:12.523Z,48.80
2018-03-23T08:35:17.504Z,48.90
2018-03-23T08:36:22.664Z,48.80
2018-03-23T08:37:27.759Z,48.90
2018-03-23T08:38:33.516Z,48.70
2018-03-23T08:39:38.670Z,48.90
2018-03-23T08:40:43.635Z,48.80
2018-03-23T08:41:48.619Z,48.90
2018-03-23T08:42:53.520Z,48.90
2018-03-23T08:43:58.691Z,48.90
2018-03-23T08:45:03.846Z,48.80
2018-03-23T08:46:08.756Z,48.80
2018-03-23T08:47:13.954Z,49.40
2018-03-23T08:48:18.993Z,48.70
2018-03-23T08:49:23.917Z,48.70
2018-03-23T08:50:29.003Z,48.80
2018-03-23T08:51:34.052Z,48.70
2018-03-23T08:52:39.551Z,48.60
2018-03-23T08:53:44.449Z,48.70
2018-03-23T08:54:49.580Z,48.70
2018-03-23T08:55:54.545Z,48.60
2018-03-23T08:56:59.733Z,48.70
2018-03-23T08:58:04.842Z,48.70
2018-03-23T08:59:10.008Z,48.70
2018-03-23T09:00:15.170Z,48.90
2018-03-23T09:01:20.297Z,49.50
2018-03-23T09:02:25.423Z,49.00
2018-03-23T09:03:30.635Z,49.10
2018-03-23T09:04:35.858Z,49.20
2018-03-23T09:05:40.974Z,49.30
2018-03-23T09:06:46.151Z,49.40
2018-03-23T09:07:51.281Z,49.40
2018-03-23T09:08:56.391Z,49.50
2018-03-23T09:10:01.775Z,49.70
2018-03-23T09:11:06.708Z,49.70
2018-03-23T09:12:12.037Z,49.70
2018-03-23T09:13:17.185Z,49.80
2018-03-23T09:14:22.397Z,49.90
2018-03-23T09:15:27.502Z,49.80
2018-03-23T09:16:34.925Z,49.80
2018-03-23T09:17:40.443Z,49.80
2018-03-23T09:18:45.553Z,50.30
2018-03-23T09:19:51.017Z,50.60
2018-03-23T09:20:56.145Z,50.40
2018-03-23T09:22:01.288Z,50.40
2018-03-23T09:23:06.233Z,50.50
2018-03-23T09:24:11.609Z,50.60
2018-03-23T09:25:16.843Z,50.70
2018-03-23T09:26:22.178Z,50.70
2018-03-23T09:27:27.239Z,50.90
2018-03-23T09:28:32.616Z,50.90
2018-03-23T09:29:37.859Z,51.10
2018-03-23T09:30:43.312Z,51.10
2018-03-23T09:31:48.403Z,51.30
2018-03-23T09:32:53.630Z,51.30
2018-03-23T09:33:58.545Z,51.40
2018-03-23T09:35:03.720Z,51.40
2018-03-23T09:36:08.808Z,51.40
2018-03-23T09:37:13.889Z,51.30
2018-03-23T09:38:19.016Z,51.30
2018-03-23T09:39:24.200Z,51.40
2018-03-23T09:40:29.188Z,51.40
2018-03-23T09:41:34.340Z,51.50
2018-03-23T09:42:39.422Z,51.60
2018-03-23T09:43:44.408Z,51.60
2018-03-23T09:44:49.525Z,51.60
2018-03-23T09:45:54.656Z,51.60
2018-03-23T09:46:59.614Z,51.60
2018-03-23T09:48:04.693Z,51.60
2018-03-23T09:49:09.736Z,51.60
2018-03-23T09:50:14.595Z,51.70
2018-03-23T09:51:19.637Z,51.70
2018-03-23T09:52:24.869Z,51.80
2018-03-23T09:53:30.026Z,51.80
2018-03-23T09:54:34.962Z,51.80
2018-03-23T09:55:40.217Z,51.80
2018-03-23T09:56:45.358Z,51.80
2018-03-23T09:57:50.428Z,51.80
2018-03-23T09:58:55.662Z,51.80
2018-03-23T10:00:07.205Z,51.90
2018-03-23T10:01:17.393Z,52.00
2018-03-23T10:02:23.091Z,52.00
2018-03-23T10:03:28.191Z,52.00
2018-03-23T10:04:33.377Z,52.00
2018-03-23T10:05:39.420Z,52.00
2018-03-23T10:06:44.770Z,52.10
2018-03-23T10:07:50.193Z,52.10
2018-03-23T10:08:55.621Z,52.10
2018-03-23T10:10:00.775Z,52.10
2018-03-23T10:11:06.223Z,52.10
2018-03-23T10:12:11.439Z,52.10
2018-03-23T10:13:18.603Z,52.10
2018-03-23T10:14:23.740Z,52.10
2018-03-23T10:15:28.786Z,52.10
2018-03-23T10:16:33.913Z,52.10
2018-03-23T10:17:39.015Z,52.10
2018-03-23T10:18:44.193Z,52.20
2018-03-23T10:19:49.177Z,52.30
2018-03-23T10:20:54.376Z,52.20
2018-03-23T10:21:59.489Z,52.10
2018-03-23T10:23:04.617Z,52.10
2018-03-23T10:24:09.467Z,52.10
2018-03-23T10:25:14.451Z,52.10
2018-03-23T10:26:19.600Z,52.10
2018-03-23T10:27:24.686Z,52.00
2018-03-23T10:28:29.710Z,52.00
2018-03-23T10:29:34.921Z,51.60
2018-03-23T10:30:39.876Z,50.80
2018-03-23T10:31:44.770Z,50.40
2018-03-23T10:32:49.722Z,50.10
2018-03-23T10:33:54.830Z,50.00
2018-03-23T10:34:59.961Z,49.90
2018-03-23T10:36:04.866Z,49.90
2018-03-23T10:37:09.753Z,49.80
2018-03-23T10:38:14.722Z,49.80
2018-03-23T10:39:19.679Z,49.70
2018-03-23T10:40:24.814Z,49.70
2018-03-23T10:41:29.937Z,49.70
2018-03-23T10:42:34.866Z,49.50
2018-03-23T10:43:39.782Z,49.50
2018-03-23T10:44:44.617Z,49.40
2018-03-23T10:45:49.630Z,49.40
2018-03-23T10:46:54.599Z,49.40
2018-03-23T10:47:59.765Z,49.40
2018-03-23T10:49:04.919Z,49.40
2018-03-23T10:50:09.816Z,49.40
2018-03-23T10:51:14.664Z,49.50
2018-03-23T10:52:19.717Z,49.40
2018-03-23T10:53:24.749Z,49.50
2018-03-23T10:54:29.708Z,49.40
2018-03-23T10:55:34.601Z,48.60
2018-03-23T10:56:39.650Z,48.40
2018-03-23T10:57:44.758Z,48.20
2018-03-23T10:58:49.817Z,47.80
2018-03-23T10:59:54.672Z,47.30
2018-03-23T11:00:59.547Z,47.00
2018-03-23T11:02:04.504Z,45.00
2018-03-23T11:03:09.424Z,44.10
2018-03-23T11:04:14.433Z,44.50
2018-03-23T11:05:19.555Z,44.50
2018-03-23T11:06:24.608Z,44.90
2018-03-23T11:07:29.666Z,44.90
2018-03-23T11:08:34.767Z,44.90
2018-03-23T11:09:39.869Z,44.90
2018-03-23T11:10:45.014Z,44.80
2018-03-23T11:11:49.963Z,45.00
2018-03-23T11:12:55.085Z,45.20
2018-03-23T11:14:00.452Z,45.20
2018-03-23T11:15:05.428Z,45.30
2018-03-23T11:16:10.721Z,45.20
2018-03-23T11:17:15.898Z,45.10
2018-03-23T11:18:21.155Z,45.20
2018-03-23T11:19:26.305Z,45.20
2018-03-23T11:20:31.342Z,45.20
2018-03-23T11:21:36.397Z,45.30
2018-03-23T11:22:41.325Z,45.30
2018-03-23T11:23:46.406Z,45.40
2018-03-23T11:24:51.370Z,45.40
2018-03-23T11:25:56.327Z,45.60
2018-03-23T11:27:01.490Z,45.80
2018-03-23T11:28:06.692Z,45.70
2018-03-23T11:29:11.699Z,45.80
2018-03-23T11:30:16.795Z,45.90
2018-03-23T11:31:21.800Z,46.00
2018-03-23T11:32:27.152Z,46.00
2018-03-23T11:33:32.321Z,46.00
2018-03-23T11:34:37.344Z,45.90
2018-03-23T11:35:42.522Z,45.90
2018-03-23T11:36:47.646Z,45.90
2018-03-23T11:37:52.673Z,45.90
2018-03-23T11:38:57.668Z,45.90
2018-03-23T11:40:02.750Z,45.90
2018-03-23T11:41:07.783Z,45.90
2018-03-23T11:42:12.891Z,45.90
2018-03-23T11:43:17.833Z,45.90
2018-03-23T11:44:22.818Z,45.90
2018-03-23T11:45:27.931Z,45.90
2018-03-23T11:46:33.091Z,46.00
2018-03-23T11:47:38.162Z,46.00
2018-03-23T11:48:43.279Z,46.10
2018-03-23T11:49:48.216Z,46.10
2018-03-23T11:50:53.362Z,46.20
2018-03-23T11:51:58.338Z,46.20
2018-03-23T11:53:03.341Z,46.30
2018-03-23T11:54:08.460Z,46.30
2018-03-23T11:55:13.666Z,46.40
2018-03-23T11:56:19.105Z,46.30
2018-03-23T11:57:24.162Z,46.40
2018-03-23T11:58:29.144Z,46.60
2018-03-23T11:59:34.102Z,46.50
2018-03-23T12:00:38.977Z,46.60
2018-03-23T12:01:44.033Z,46.60
2018-03-23T12:02:49.037Z,46.60
2018-03-23T12:03:54.008Z,46.60
2018-03-23T12:04:58.898Z,46.70
2018-03-23T12:06:04.001Z,46.70
2018-03-23T12:07:08.947Z,46.70
2018-03-23T12:08:13.977Z,46.70
2018-03-23T12:09:19.084Z,46.80
2018-03-23T12:10:24.136Z,46.80
2018-03-23T12:11:29.046Z,46.90
2018-03-23T12:12:34.317Z,46.90
2018-03-23T12:13:39.431Z,46.90
2018-03-23T12:14:44.566Z,46.90
2018-03-23T12:15:49.760Z,47.00
2018-03-23T12:16:55.089Z,47.10
2018-03-23T12:18:00.491Z,47.10
2018-03-23T12:19:05.491Z,47.10
2018-03-23T12:20:10.573Z,47.20
2018-03-23T12:21:15.763Z,47.30
2018-03-23T12:22:20.857Z,47.20
2018-03-23T12:23:25.949Z,47.20
2018-03-23T12:24:31.014Z,47.20
2018-03-23T12:25:36.097Z,47.30
2018-03-23T12:26:41.143Z,47.40
2018-03-23T12:27:46.276Z,47.30
2018-03-23T12:28:52.056Z,47.40
2018-03-23T12:29:57.322Z,47.30
2018-03-23T12:31:02.637Z,47.40
2018-03-23T12:32:07.746Z,47.40
2018-03-23T12:33:12.748Z,47.40
2018-03-23T12:34:17.957Z,47.50
2018-03-23T12:35:22.968Z,47.50
2018-03-23T12:36:28.256Z,47.60
2018-03-23T12:37:33.428Z,47.60
2018-03-23T12:38:38.412Z,47.60
2018-03-23T12:39:43.329Z,47.60
2018-03-23T12:40:48.290Z,48.40
2018-03-23T12:41:53.300Z,47.70
2018-03-23T12:42:58.228Z,47.60
2018-03-23T12:44:03.217Z,47.70
2018-03-23T12:45:08.274Z,47.70
2018-03-23T12:46:13.225Z,47.70
2018-03-23T12:47:18.145Z,47.80
2018-03-23T12:48:23.154Z,47.80
2018-03-23T12:49:28.168Z,47.80
2018-03-23T12:50:33.044Z,47.90
2018-03-23T12:51:38.029Z,47.80
2018-03-23T12:52:42.920Z,47.90
2018-03-23T12:53:47.792Z,48.00
2018-03-23T12:54:52.727Z,48.00
2018-03-23T12:55:57.822Z,48.00
2018-03-23T12:57:02.752Z,48.10
2018-03-23T12:58:07.582Z,48.00
2018-03-23T12:59:12.725Z,48.00
2018-03-23T13:00:17.590Z,48.20
2018-03-23T13:01:22.645Z,48.30
2018-03-23T13:02:27.699Z,48.30
2018-03-23T13:03:32.771Z,48.30
2018-03-23T13:04:39.259Z,48.30
2018-03-23T13:05:44.349Z,48.30
2018-03-23T13:06:49.452Z,48.30
2018-03-23T13:07:54.401Z,48.50
2018-03-23T13:08:59.279Z,48.60
2018-03-23T13:10:04.245Z,48.60
2018-03-23T13:11:09.302Z,48.70
2018-03-23T13:12:14.168Z,48.90
2018-03-23T13:13:19.283Z,48.80
2018-03-23T13:14:24.269Z,48.80
2018-03-23T13:15:29.402Z,49.00
2018-03-23T13:16:34.200Z,49.10
2018-03-23T13:17:39.206Z,49.20
2018-03-23T13:18:44.073Z,49.00
2018-03-23T13:19:49.068Z,48.90
2018-03-23T13:20:54.163Z,48.90
2018-03-23T13:21:59.340Z,48.80
2018-03-23T13:23:04.318Z,48.80
2018-03-23T13:24:09.246Z,48.90
2018-03-23T13:25:14.319Z,48.90
2018-03-23T13:26:19.313Z,48.90
2018-03-23T13:27:24.251Z,48.80
2018-03-23T13:28:29.267Z,48.90
2018-03-23T13:29:34.160Z,49.00
2018-03-23T13:30:39.267Z,49.10
2018-03-23T13:31:44.110Z,49.00
2018-03-23T13:32:49.141Z,49.10
2018-03-23T13:33:54.115Z,49.10
2018-03-23T13:34:59.232Z,49.10
2018-03-23T13:36:04.253Z,49.00
2018-03-23T13:37:09.254Z,49.00
2018-03-23T13:38:14.272Z,49.00
2018-03-23T13:39:19.138Z,49.00
2018-03-23T13:40:24.227Z,49.10
2018-03-23T13:41:29.538Z,49.30
2018-03-23T13:42:34.490Z,49.30
2018-03-23T13:43:39.609Z,49.50
2018-03-23T13:44:44.732Z,49.50
2018-03-23T13:45:49.781Z,49.70
2018-03-23T13:46:54.878Z,49.60
2018-03-23T13:47:59.965Z,49.60
2018-03-23T13:49:05.068Z,49.70
2018-03-23T13:50:10.159Z,49.80
2018-03-23T13:51:15.319Z,49.90
2018-03-23T13:52:20.419Z,50.00
2018-03-23T13:53:25.469Z,50.00
2018-03-23T13:54:30.596Z,50.10
2018-03-23T13:55:36.184Z,50.20
2018-03-23T13:56:41.352Z,50.20
2018-03-23T13:57:46.371Z,50.40